sensor_id;sensor_type;location;lat;lon;timestamp;pressure;altitude;pressure_sealevel;temperature;humidity
6532;BME280;3299;42.004;24.868;2023-04-01T00:01:54;97360.19;;;12.70;62.29
6532;BME280;3299;42.004;24.868;2023-04-01T00:04:20;97369.22;;;12.66;62.73
6532;BME280;3299;42.004;24.868;2023-04-01T00:06:46;97347.91;;;12.36;63.19
6532;BME280;3299;42.004;24.868;2023-04-01T00:09:12;97386.97;;;12.61;63.26
6532;BME280;3299;42.004;24.868;2023-04-01T00:11:38;97347.34;;;12.32;63.19
6532;BME280;3299;42.004;24.868;2023-04-01T00:14:04;97306.53;;;11.98;63.39
6532;BME280;3299;42.004;24.868;2023-04-01T00:16:30;97341.28;;;12.05;64.07
6532;BME280;3299;42.004;24.868;2023-04-01T00:18:55;97323.88;;;11.78;64.57
6532;BME280;3299;42.004;24.868;2023-04-01T00:21:21;97369.41;;;12.00;64.80
6532;BME280;3299;42.004;24.868;2023-04-01T00:23:48;97354.00;;;11.98;64.56
6532;BME280;3299;42.004;24.868;2023-04-01T00:26:14;97371.72;;;12.03;65.02
6532;BME280;3299;42.004;24.868;2023-04-01T00:28:42;97304.69;;;11.62;64.84
6532;BME280;3299;42.004;24.868;2023-04-01T00:31:09;97354.13;;;11.97;65.38
6532;BME280;3299;42.004;24.868;2023-04-01T00:33:35;97354.19;;;11.78;65.66
6532;BME280;3299;42.004;24.868;2023-04-01T00:36:09;97316.53;;;11.64;65.65
6532;BME280;3299;42.004;24.868;2023-04-01T00:38:35;97373.38;;;11.94;65.79
6532;BME280;3299;42.004;24.868;2023-04-01T00:41:01;97348.28;;;11.76;66.09
6532;BME280;3299;42.004;24.868;2023-04-01T00:43:26;97382.38;;;11.90;66.18
6532;BME280;3299;42.004;24.868;2023-04-01T00:45:52;97391.25;;;11.69;67.43
6532;BME280;3299;42.004;24.868;2023-04-01T00:48:19;97366.13;;;11.41;68.13
6532;BME280;3299;42.004;24.868;2023-04-01T00:51:01;97362.88;;;11.39;68.15
6532;BME280;3299;42.004;24.868;2023-04-01T00:53:29;97360.66;;;11.25;69.37
6532;BME280;3299;42.004;24.868;2023-04-01T00:56:00;97343.22;;;11.27;68.84
6532;BME280;3299;42.004;24.868;2023-04-01T00:58:29;97387.28;;;11.65;68.60
6532;BME280;3299;42.004;24.868;2023-04-01T01:00:57;97365.59;;;11.66;67.82
6532;BME280;3299;42.004;24.868;2023-04-01T01:03:23;97300.03;;;11.37;66.64
6532;BME280;3299;42.004;24.868;2023-04-01T01:06:01;97383.63;;;11.96;66.46
6532;BME280;3299;42.004;24.868;2023-04-01T01:08:36;97377.91;;;11.92;66.80
6532;BME280;3299;42.004;24.868;2023-04-01T01:11:08;97323.34;;;11.65;66.85
6532;BME280;3299;42.004;24.868;2023-04-01T01:13:44;97316.50;;;11.45;67.55
6532;BME280;3299;42.004;24.868;2023-04-01T01:16:27;97341.22;;;11.78;67.18
6532;BME280;3299;42.004;24.868;2023-04-01T01:19:16;97371.88;;;11.92;67.51
6532;BME280;3299;42.004;24.868;2023-04-01T01:27:19;97375.13;;;11.94;68.72
6532;BME280;3299;42.004;24.868;2023-04-01T01:30:29;97322.50;;;11.74;68.07
6532;BME280;3299;42.004;24.868;2023-04-01T01:35:38;97315.19;;;11.60;68.03
6532;BME280;3299;42.004;24.868;2023-04-01T01:38:10;97377.91;;;11.92;68.58
6532;BME280;3299;42.004;24.868;2023-04-01T01:40:41;97376.22;;;11.91;69.02
6532;BME280;3299;42.004;24.868;2023-04-01T01:43:10;97380.59;;;12.00;68.63
6532;BME280;3299;42.004;24.868;2023-04-01T01:45:40;97366.41;;;11.95;68.69
6532;BME280;3299;42.004;24.868;2023-04-01T01:48:08;97321.16;;;11.51;69.83
6532;BME280;3299;42.004;24.868;2023-04-01T01:50:34;97366.31;;;11.68;70.36
6532;BME280;3299;42.004;24.868;2023-04-01T01:53:10;97292.00;;;11.11;71.74
6532;BME280;3299;42.004;24.868;2023-04-01T01:55:38;97372.44;;;11.67;71.89
6532;BME280;3299;42.004;24.868;2023-04-01T02:00:54;97339.97;;;11.44;72.68
6532;BME280;3299;42.004;24.868;2023-04-01T02:03:23;97303.97;;;11.12;73.80
6532;BME280;3299;42.004;24.868;2023-04-01T02:05:51;97315.66;;;10.97;75.20
6532;BME280;3299;42.004;24.868;2023-04-01T02:08:28;97357.81;;;11.18;75.83
6532;BME280;3299;42.004;24.868;2023-04-01T02:11:03;97330.28;;;10.59;79.42
6532;BME280;3299;42.004;24.868;2023-04-01T02:13:55;97345.69;;;10.70;79.97
6532;BME280;3299;42.004;24.868;2023-04-01T02:16:28;97306.84;;;10.51;81.04
6532;BME280;3299;42.004;24.868;2023-04-01T02:18:56;97296.31;;;10.43;81.88
6532;BME280;3299;42.004;24.868;2023-04-01T02:21:24;97271.38;;;10.23;81.76
6532;BME280;3299;42.004;24.868;2023-04-01T02:23:52;97267.53;;;10.17;82.25
6532;BME280;3299;42.004;24.868;2023-04-01T02:26:19;97243.34;;;10.18;81.76
6532;BME280;3299;42.004;24.868;2023-04-01T02:28:46;97279.72;;;10.36;82.35
6532;BME280;3299;42.004;24.868;2023-04-01T02:31:14;97269.22;;;10.28;82.90
6532;BME280;3299;42.004;24.868;2023-04-01T02:33:40;97225.47;;;10.06;83.14
6532;BME280;3299;42.004;24.868;2023-04-01T02:36:07;97227.00;;;10.18;82.71
6532;BME280;3299;42.004;24.868;2023-04-01T02:38:36;97240.41;;;10.42;81.75
6532;BME280;3299;42.004;24.868;2023-04-01T02:41:02;97268.75;;;10.72;80.22
6532;BME280;3299;42.004;24.868;2023-04-01T02:43:28;97237.72;;;10.62;78.61
6532;BME280;3299;42.004;24.868;2023-04-01T02:45:54;97233.69;;;10.79;78.26
6532;BME280;3299;42.004;24.868;2023-04-01T02:48:19;97298.25;;;11.28;78.08
6532;BME280;3299;42.004;24.868;2023-04-01T02:50:45;97261.72;;;11.02;78.14
6532;BME280;3299;42.004;24.868;2023-04-01T02:53:11;97296.88;;;11.24;77.52
6532;BME280;3299;42.004;24.868;2023-04-01T02:55:37;97295.38;;;11.31;78.31
6532;BME280;3299;42.004;24.868;2023-04-01T02:58:03;97232.31;;;10.94;79.33
6532;BME280;3299;42.004;24.868;2023-04-01T03:00:29;97321.44;;;11.39;80.00
6532;BME280;3299;42.004;24.868;2023-04-01T03:02:54;97271.53;;;10.99;80.15
6532;BME280;3299;42.004;24.868;2023-04-01T03:05:20;97258.31;;;10.83;79.89
6532;BME280;3299;42.004;24.868;2023-04-01T03:07:46;97341.59;;;11.35;79.09
6532;BME280;3299;42.004;24.868;2023-04-01T03:10:12;97304.22;;;11.19;78.94
6532;BME280;3299;42.004;24.868;2023-04-01T03:12:37;97288.44;;;10.93;79.62
6532;BME280;3299;42.004;24.868;2023-04-01T03:15:03;97231.63;;;10.24;81.59
6532;BME280;3299;42.004;24.868;2023-04-01T03:17:28;97223.75;;;10.16;82.27
6532;BME280;3299;42.004;24.868;2023-04-01T03:19:54;97227.41;;;10.13;82.48
6532;BME280;3299;42.004;24.868;2023-04-01T03:22:20;97310.69;;;10.66;82.12
6532;BME280;3299;42.004;24.868;2023-04-01T03:24:47;97263.53;;;10.34;82.34
6532;BME280;3299;42.004;24.868;2023-04-01T03:27:13;97270.53;;;10.22;82.84
6532;BME280;3299;42.004;24.868;2023-04-01T03:29:38;97297.75;;;10.17;84.43
6532;BME280;3299;42.004;24.868;2023-04-01T03:32:04;97251.03;;;9.88;84.47
6532;BME280;3299;42.004;24.868;2023-04-01T03:34:30;97229.03;;;9.84;83.71
6532;BME280;3299;42.004;24.868;2023-04-01T03:36:56;97301.31;;;10.25;83.17
6532;BME280;3299;42.004;24.868;2023-04-01T03:39:22;97247.75;;;10.07;82.96
6532;BME280;3299;42.004;24.868;2023-04-01T03:41:48;97254.75;;;10.16;82.26
6532;BME280;3299;42.004;24.868;2023-04-01T03:44:13;97229.63;;;9.97;82.29
6532;BME280;3299;42.004;24.868;2023-04-01T03:46:38;97293.44;;;10.27;83.08
6532;BME280;3299;42.004;24.868;2023-04-01T03:49:11;97224.13;;;9.61;83.66
6532;BME280;3299;42.004;24.868;2023-04-01T03:51:41;97268.16;;;9.80;84.63
6532;BME280;3299;42.004;24.868;2023-04-01T03:54:08;97206.47;;;9.36;85.59
6532;BME280;3299;42.004;24.868;2023-04-01T03:56:34;97251.22;;;9.67;85.96
6532;BME280;3299;42.004;24.868;2023-04-01T03:59:05;97194.81;;;9.42;85.96
6532;BME280;3299;42.004;24.868;2023-04-01T04:01:31;97244.59;;;9.73;85.82
6532;BME280;3299;42.004;24.868;2023-04-01T04:03:56;97189.41;;;9.45;85.74
6532;BME280;3299;42.004;24.868;2023-04-01T04:06:23;97238.78;;;9.81;84.91
6532;BME280;3299;42.004;24.868;2023-04-01T04:08:49;97278.66;;;10.08;85.11
6532;BME280;3299;42.004;24.868;2023-04-01T04:11:15;97243.75;;;10.03;84.34
6532;BME280;3299;42.004;24.868;2023-04-01T04:13:41;97216.56;;;9.99;84.24
6532;BME280;3299;42.004;24.868;2023-04-01T04:16:07;97177.31;;;9.75;85.45
6532;BME280;3299;42.004;24.868;2023-04-01T04:18:35;97178.63;;;9.69;86.74
6532;BME280;3299;42.004;24.868;2023-04-01T04:21:01;97262.09;;;10.20;87.04
6532;BME280;3299;42.004;24.868;2023-04-01T04:23:27;97187.94;;;9.81;86.84
6532;BME280;3299;42.004;24.868;2023-04-01T04:26:04;97227.28;;;10.15;86.51
6532;BME280;3299;42.004;24.868;2023-04-01T04:28:30;97234.63;;;10.19;84.99
6532;BME280;3299;42.004;24.868;2023-04-01T04:30:55;97268.72;;;10.53;84.06
6532;BME280;3299;42.004;24.868;2023-04-01T04:33:22;97187.13;;;10.11;84.04
6532;BME280;3299;42.004;24.868;2023-04-01T04:35:48;97236.88;;;10.52;82.09
6532;BME280;3299;42.004;24.868;2023-04-01T04:38:13;97262.78;;;10.71;81.58
6532;BME280;3299;42.004;24.868;2023-04-01T04:40:39;97221.41;;;10.62;80.46
6532;BME280;3299;42.004;24.868;2023-04-01T04:43:05;97261.59;;;10.85;80.67
6532;BME280;3299;42.004;24.868;2023-04-01T04:45:30;97228.22;;;10.72;80.54
6532;BME280;3299;42.004;24.868;2023-04-01T04:47:56;97227.91;;;10.75;79.70
6532;BME280;3299;42.004;24.868;2023-04-01T04:50:23;97278.50;;;11.08;79.70
6532;BME280;3299;42.004;24.868;2023-04-01T04:52:48;97261.19;;;10.99;79.21
6532;BME280;3299;42.004;24.868;2023-04-01T04:55:14;97270.59;;;11.28;78.08
6532;BME280;3299;42.004;24.868;2023-04-01T04:57:40;97240.47;;;11.18;77.68
6532;BME280;3299;42.004;24.868;2023-04-01T05:00:06;97200.44;;;10.93;77.53
6532;BME280;3299;42.004;24.868;2023-04-01T05:02:32;97222.22;;;11.10;75.36
6532;BME280;3299;42.004;24.868;2023-04-01T05:04:58;97199.34;;;11.05;74.10
6532;BME280;3299;42.004;24.868;2023-04-01T05:07:23;97203.69;;;11.24;72.30
6532;BME280;3299;42.004;24.868;2023-04-01T05:09:49;97283.91;;;11.81;71.61
6532;BME280;3299;42.004;24.868;2023-04-01T05:12:14;97287.44;;;11.89;71.06
6532;BME280;3299;42.004;24.868;2023-04-01T05:14:42;97274.22;;;11.83;71.32
6532;BME280;3299;42.004;24.868;2023-04-01T05:17:09;97205.28;;;11.44;72.56
6532;BME280;3299;42.004;24.868;2023-04-01T05:19:35;97243.16;;;11.64;73.62
6532;BME280;3299;42.004;24.868;2023-04-01T05:22:01;97197.69;;;11.33;74.73
6532;BME280;3299;42.004;24.868;2023-04-01T05:24:26;97187.28;;;11.42;75.02
6532;BME280;3299;42.004;24.868;2023-04-01T05:26:52;97268.44;;;12.08;74.94
6532;BME280;3299;42.004;24.868;2023-04-01T05:29:17;97272.09;;;12.15;74.11
6532;BME280;3299;42.004;24.868;2023-04-01T05:31:42;97183.97;;;11.69;73.17
6532;BME280;3299;42.004;24.868;2023-04-01T05:34:08;97261.00;;;12.22;73.19
6532;BME280;3299;42.004;24.868;2023-04-01T05:36:33;97264.91;;;12.36;72.71
6532;BME280;3299;42.004;24.868;2023-04-01T05:38:59;97272.28;;;12.58;72.60
6532;BME280;3299;42.004;24.868;2023-04-01T05:41:24;97182.19;;;12.06;72.36
6532;BME280;3299;42.004;24.868;2023-04-01T05:43:50;97251.00;;;12.54;72.01
6532;BME280;3299;42.004;24.868;2023-04-01T05:46:15;97204.34;;;12.27;72.35
6532;BME280;3299;42.004;24.868;2023-04-01T05:48:41;97258.72;;;12.64;71.84
6532;BME280;3299;42.004;24.868;2023-04-01T05:51:06;97250.28;;;12.62;71.84
6532;BME280;3299;42.004;24.868;2023-04-01T05:53:32;97165.63;;;12.16;71.96
6532;BME280;3299;42.004;24.868;2023-04-01T05:56:01;97226.09;;;12.44;71.76
6532;BME280;3299;42.004;24.868;2023-04-01T05:58:36;97206.63;;;12.30;74.32
6532;BME280;3299;42.004;24.868;2023-04-01T06:01:07;97193.28;;;12.25;75.35
6532;BME280;3299;42.004;24.868;2023-04-01T06:03:32;97220.06;;;12.43;75.74
6532;BME280;3299;42.004;24.868;2023-04-01T06:05:58;97176.53;;;12.20;76.66
6532;BME280;3299;42.004;24.868;2023-04-01T06:08:24;97167.00;;;12.11;77.24
6532;BME280;3299;42.004;24.868;2023-04-01T06:30:43;97104.97;;;12.27;84.43
6532;BME280;3299;42.004;24.868;2023-04-01T06:53:25;97075.84;;;12.33;82.58
6532;BME280;3299;42.004;24.868;2023-04-01T06:56:04;97132.38;;;12.47;83.36
6532;BME280;3299;42.004;24.868;2023-04-01T06:58:49;97148.81;;;12.65;83.18
6532;BME280;3299;42.004;24.868;2023-04-01T07:01:42;97191.19;;;12.91;81.16
6532;BME280;3299;42.004;24.868;2023-04-01T07:04:31;97190.03;;;13.03;79.64
6532;BME280;3299;42.004;24.868;2023-04-01T07:07:00;97175.28;;;13.03;79.41
6532;BME280;3299;42.004;24.868;2023-04-01T07:09:39;97105.41;;;12.75;77.67
6532;BME280;3299;42.004;24.868;2023-04-01T07:12:15;97185.72;;;13.29;78.26
6532;BME280;3299;42.004;24.868;2023-04-01T07:14:46;97103.22;;;12.88;77.98
6532;BME280;3299;42.004;24.868;2023-04-01T07:22:36;97187.53;;;13.62;77.38
6532;BME280;3299;42.004;24.868;2023-04-01T07:25:31;97173.28;;;13.66;77.36
6532;BME280;3299;42.004;24.868;2023-04-01T07:28:05;97105.19;;;13.29;77.63
6532;BME280;3299;42.004;24.868;2023-04-01T07:35:59;97154.84;;;13.26;81.64
6532;BME280;3299;42.004;24.868;2023-04-01T07:41:38;97140.75;;;13.11;82.47
6532;BME280;3299;42.004;24.868;2023-04-01T07:49:13;97045.09;;;12.81;82.04
6532;BME280;3299;42.004;24.868;2023-04-01T07:52:14;97051.16;;;13.07;81.27
6532;BME280;3299;42.004;24.868;2023-04-01T08:05:49;97092.50;;;13.93;75.24
6532;BME280;3299;42.004;24.868;2023-04-01T08:08:31;97138.38;;;14.10;75.64
6532;BME280;3299;42.004;24.868;2023-04-01T08:16:23;96983.44;;;13.34;77.63
6532;BME280;3299;42.004;24.868;2023-04-01T08:21:38;97119.94;;;14.45;76.43
6532;BME280;3299;42.004;24.868;2023-04-01T08:26:54;97030.88;;;13.93;76.22
6532;BME280;3299;42.004;24.868;2023-04-01T08:29:36;97047.53;;;14.16;76.08
6532;BME280;3299;42.004;24.868;2023-04-01T08:32:11;97016.13;;;14.02;76.32
6532;BME280;3299;42.004;24.868;2023-04-01T08:34:39;97105.34;;;14.60;75.29
6532;BME280;3299;42.004;24.868;2023-04-01T08:37:17;97032.06;;;14.15;75.44
6532;BME280;3299;42.004;24.868;2023-04-01T08:39:48;97081.56;;;14.39;76.27
6532;BME280;3299;42.004;24.868;2023-04-01T08:51:09;97087.13;;;15.00;71.45
6532;BME280;3299;42.004;24.868;2023-04-01T08:56:54;97067.25;;;15.07;70.51
6532;BME280;3299;42.004;24.868;2023-04-01T09:04:32;97028.50;;;14.96;69.91
6532;BME280;3299;42.004;24.868;2023-04-01T09:18:32;97016.81;;;14.92;71.62
6532;BME280;3299;42.004;24.868;2023-04-01T09:32:16;96992.09;;;14.72;72.34
6532;BME280;3299;42.004;24.868;2023-04-01T09:37:50;96970.94;;;14.83;72.20
6532;BME280;3299;42.004;24.868;2023-04-01T09:40:18;96965.69;;;14.91;72.04
6532;BME280;3299;42.004;24.868;2023-04-01T09:46:06;96968.84;;;15.25;71.85
6532;BME280;3299;42.004;24.868;2023-04-01T10:14:29;96931.53;;;16.53;67.06
6532;BME280;3299;42.004;24.868;2023-04-01T10:22:56;96916.44;;;17.06;64.32
6532;BME280;3299;42.004;24.868;2023-04-01T10:28:41;96914.84;;;17.05;63.77
6532;BME280;3299;42.004;24.868;2023-04-01T10:31:42;96898.06;;;16.85;63.99
6532;BME280;3299;42.004;24.868;2023-04-01T10:52:04;96800.28;;;17.30;60.57
6532;BME280;3299;42.004;24.868;2023-04-01T10:54:47;96785.13;;;17.19;59.87
6532;BME280;3299;42.004;24.868;2023-04-01T11:21:54;96711.03;;;17.12;58.54
6532;BME280;3299;42.004;24.868;2023-04-01T11:52:15;96713.63;;;18.02;59.80
6532;BME280;3299;42.004;24.868;2023-04-01T11:55:04;96721.69;;;18.07;59.29
6532;BME280;3299;42.004;24.868;2023-04-01T12:09:01;96707.41;;;17.48;60.96
6532;BME280;3299;42.004;24.868;2023-04-01T12:21:00;96688.59;;;17.38;61.56
6532;BME280;3299;42.004;24.868;2023-04-01T12:32:27;96663.53;;;17.44;64.00
6532;BME280;3299;42.004;24.868;2023-04-01T12:35:15;96656.28;;;17.46;63.76
6532;BME280;3299;42.004;24.868;2023-04-01T12:41:13;96579.63;;;17.18;63.78
6532;BME280;3299;42.004;24.868;2023-04-01T12:47:00;96582.97;;;17.60;63.67
6532;BME280;3299;42.004;24.868;2023-04-01T13:00:54;96633.84;;;19.57;58.68
6532;BME280;3299;42.004;24.868;2023-04-01T13:09:09;96631.81;;;19.14;59.59
6532;BME280;3299;42.004;24.868;2023-04-01T13:14:56;96615.66;;;18.91;59.76
6532;BME280;3299;42.004;24.868;2023-04-01T13:17:22;96613.66;;;18.86;58.93
6532;BME280;3299;42.004;24.868;2023-04-01T13:28:24;96582.53;;;18.51;58.32
6532;BME280;3299;42.004;24.868;2023-04-01T13:33:33;96518.59;;;18.13;58.48
6532;BME280;3299;42.004;24.868;2023-04-01T13:44:11;96622.94;;;18.29;59.72
6532;BME280;3299;42.004;24.868;2023-04-01T13:46:48;96675.28;;;18.29;60.23
6532;BME280;3299;42.004;24.868;2023-04-01T13:52:33;96692.72;;;17.75;60.79
6532;BME280;3299;42.004;24.868;2023-04-01T13:55:26;96652.94;;;16.89;61.82
6532;BME280;3299;42.004;24.868;2023-04-01T14:03:42;96749.41;;;16.55;64.36
6532;BME280;3299;42.004;24.868;2023-04-01T14:06:36;96768.28;;;16.28;65.65
6532;BME280;3299;42.004;24.868;2023-04-01T14:12:26;96815.69;;;16.17;66.86
6532;BME280;3299;42.004;24.868;2023-04-01T14:15:28;96821.72;;;16.03;68.70
6532;BME280;3299;42.004;24.868;2023-04-01T14:21:17;96765.59;;;15.33;78.27
6532;BME280;3299;42.004;24.868;2023-04-01T14:32:10;96824.97;;;15.07;89.43
6532;BME280;3299;42.004;24.868;2023-04-01T14:40:28;96813.69;;;14.92;95.38
6532;BME280;3299;42.004;24.868;2023-04-01T14:43:22;96803.53;;;14.97;94.07
6532;BME280;3299;42.004;24.868;2023-04-01T14:51:20;96781.63;;;15.44;90.72
6532;BME280;3299;42.004;24.868;2023-04-01T14:54:04;96783.38;;;15.52;91.65
6532;BME280;3299;42.004;24.868;2023-04-01T14:56:44;96758.16;;;15.44;93.55
6532;BME280;3299;42.004;24.868;2023-04-01T14:59:30;96789.41;;;15.67;94.30
6532;BME280;3299;42.004;24.868;2023-04-01T15:02:18;96784.94;;;15.75;88.98
6532;BME280;3299;42.004;24.868;2023-04-01T15:07:35;96811.50;;;16.30;72.68
6532;BME280;3299;42.004;24.868;2023-04-01T15:18:13;96820.81;;;16.62;71.52
6532;BME280;3299;42.004;24.868;2023-04-01T15:26:17;96808.25;;;16.72;72.99
6532;BME280;3299;42.004;24.868;2023-04-01T15:31:57;96735.88;;;16.37;74.40
6532;BME280;3299;42.004;24.868;2023-04-01T15:37:41;96723.66;;;16.37;69.37
6532;BME280;3299;42.004;24.868;2023-04-01T15:40:24;96728.34;;;16.42;71.05
6532;BME280;3299;42.004;24.868;2023-04-01T15:48:31;96780.81;;;16.61;72.83
6532;BME280;3299;42.004;24.868;2023-04-01T15:53:42;96787.13;;;16.67;72.32
6532;BME280;3299;42.004;24.868;2023-04-01T16:01:41;96747.53;;;16.49;67.21
6532;BME280;3299;42.004;24.868;2023-04-01T16:23:23;96806.59;;;16.13;83.50
6532;BME280;3299;42.004;24.868;2023-04-01T16:31:26;96834.41;;;16.06;79.30
6532;BME280;3299;42.004;24.868;2023-04-01T16:34:18;96852.28;;;15.94;80.01
6532;BME280;3299;42.004;24.868;2023-04-01T16:36:49;96861.78;;;15.87;80.94
6532;BME280;3299;42.004;24.868;2023-04-01T16:39:29;96862.84;;;15.56;82.76
6532;BME280;3299;42.004;24.868;2023-04-01T16:45:08;96864.72;;;15.39;83.17
6532;BME280;3299;42.004;24.868;2023-04-01T16:48:01;96845.59;;;15.16;84.20
6532;BME280;3299;42.004;24.868;2023-04-01T16:51:00;96834.09;;;15.11;82.61
6532;BME280;3299;42.004;24.868;2023-04-01T16:56:13;96879.38;;;15.40;83.60
6532;BME280;3299;42.004;24.868;2023-04-01T16:58:48;96875.81;;;15.41;81.26
6532;BME280;3299;42.004;24.868;2023-04-01T17:03:46;96845.38;;;15.26;74.72
6532;BME280;3299;42.004;24.868;2023-04-01T17:09:09;96874.91;;;15.57;73.49
6532;BME280;3299;42.004;24.868;2023-04-01T17:12:13;96862.25;;;15.46;74.85
6532;BME280;3299;42.004;24.868;2023-04-01T17:17:19;96876.38;;;15.51;77.43
6532;BME280;3299;42.004;24.868;2023-04-01T17:22:44;96862.88;;;15.48;78.93
6532;BME280;3299;42.004;24.868;2023-04-01T17:44:47;96866.59;;;15.23;76.76
6532;BME280;3299;42.004;24.868;2023-04-01T17:52:52;96865.03;;;15.06;68.03
6532;BME280;3299;42.004;24.868;2023-04-01T17:55:44;96907.59;;;15.29;65.26
6532;BME280;3299;42.004;24.868;2023-04-01T17:58:22;96864.09;;;14.99;68.81
6532;BME280;3299;42.004;24.868;2023-04-01T18:14:54;97087.63;;;14.95;78.20
6532;BME280;3299;42.004;24.868;2023-04-01T18:17:39;97048.25;;;14.50;81.22
6532;BME280;3299;42.004;24.868;2023-04-01T18:25:40;97023.00;;;14.27;80.72
6532;BME280;3299;42.004;24.868;2023-04-01T18:30:43;96983.28;;;14.01;76.96
6532;BME280;3299;42.004;24.868;2023-04-01T18:33:21;97031.16;;;14.24;76.36
6532;BME280;3299;42.004;24.868;2023-04-01T18:35:58;97062.69;;;14.45;74.63
6532;BME280;3299;42.004;24.868;2023-04-01T18:38:36;97016.81;;;14.20;70.86
6532;BME280;3299;42.004;24.868;2023-04-01T18:49:16;97027.84;;;14.14;67.34
6532;BME280;3299;42.004;24.868;2023-04-01T18:51:53;97081.09;;;14.43;64.53
6532;BME280;3299;42.004;24.868;2023-04-01T18:54:29;97002.28;;;14.01;63.09
6532;BME280;3299;42.004;24.868;2023-04-01T18:57:12;97040.88;;;14.22;62.75
6532;BME280;3299;42.004;24.868;2023-04-01T19:02:37;97032.06;;;14.07;63.17
6532;BME280;3299;42.004;24.868;2023-04-01T19:05:16;97062.66;;;14.21;64.22
6532;BME280;3299;42.004;24.868;2023-04-01T19:07:54;97043.59;;;14.04;66.38
6532;BME280;3299;42.004;24.868;2023-04-01T19:21:37;97004.25;;;13.08;74.42
6532;BME280;3299;42.004;24.868;2023-04-01T19:24:33;97063.34;;;13.40;74.36
6532;BME280;3299;42.004;24.868;2023-04-01T19:34:45;97077.97;;;13.41;71.05
6532;BME280;3299;42.004;24.868;2023-04-01T19:40:27;97104.19;;;13.55;70.12
6532;BME280;3299;42.004;24.868;2023-04-01T19:42:59;97110.41;;;13.62;69.65
6532;BME280;3299;42.004;24.868;2023-04-01T19:45:38;97108.94;;;13.68;69.80
6532;BME280;3299;42.004;24.868;2023-04-01T19:48:48;97099.69;;;13.65;70.38
6532;BME280;3299;42.004;24.868;2023-04-01T20:00:31;97092.28;;;13.45;72.60
6532;BME280;3299;42.004;24.868;2023-04-01T20:03:38;97103.28;;;13.39;73.25
6532;BME280;3299;42.004;24.868;2023-04-01T20:11:30;97113.28;;;13.26;74.82
6532;BME280;3299;42.004;24.868;2023-04-01T20:19:24;97125.72;;;13.14;74.59
6532;BME280;3299;42.004;24.868;2023-04-01T20:21:52;97053.44;;;12.67;75.19
6532;BME280;3299;42.004;24.868;2023-04-01T20:24:29;97092.34;;;12.84;75.24
6532;BME280;3299;42.004;24.868;2023-04-01T20:27:08;97126.25;;;13.00;76.92
6532;BME280;3299;42.004;24.868;2023-04-01T20:29:39;97088.50;;;12.71;77.64
6532;BME280;3299;42.004;24.868;2023-04-01T20:37:36;97163.47;;;13.09;77.66
6532;BME280;3299;42.004;24.868;2023-04-01T20:40:30;97157.75;;;13.05;78.15
6532;BME280;3299;42.004;24.868;2023-04-01T20:50:55;97193.44;;;12.68;79.55
6532;BME280;3299;42.004;24.868;2023-04-01T20:53:51;97198.31;;;12.71;79.95
6532;BME280;3299;42.004;24.868;2023-04-01T20:56:31;97206.16;;;12.62;80.17
6532;BME280;3299;42.004;24.868;2023-04-01T20:59:23;97167.88;;;12.29;80.59
6532;BME280;3299;42.004;24.868;2023-04-01T21:02:00;97135.56;;;11.96;81.04
6532;BME280;3299;42.004;24.868;2023-04-01T21:04:42;97120.59;;;11.90;82.24
6532;BME280;3299;42.004;24.868;2023-04-01T21:28:29;97221.47;;;12.11;81.00
6532;BME280;3299;42.004;24.868;2023-04-01T21:31:18;97148.28;;;11.63;78.98
6532;BME280;3299;42.004;24.868;2023-04-01T21:55:51;97265.22;;;12.23;75.82
6532;BME280;3299;42.004;24.868;2023-04-01T22:07:31;97260.47;;;12.19;75.89
6532;BME280;3299;42.004;24.868;2023-04-01T22:12:32;97271.41;;;12.13;76.69
6532;BME280;3299;42.004;24.868;2023-04-01T22:17:46;97273.66;;;12.25;74.45
6532;BME280;3299;42.004;24.868;2023-04-01T22:28:12;97206.97;;;11.91;70.91
6532;BME280;3299;42.004;24.868;2023-04-01T22:30:45;97228.72;;;12.07;71.28
6532;BME280;3299;42.004;24.868;2023-04-01T22:42:05;97199.63;;;12.13;65.94
6532;BME280;3299;42.004;24.868;2023-04-01T22:54:57;97247.34;;;12.20;68.65
6532;BME280;3299;42.004;24.868;2023-04-01T22:57:49;97274.00;;;12.40;68.07
6532;BME280;3299;42.004;24.868;2023-04-01T23:03:11;97257.00;;;12.28;66.76
6532;BME280;3299;42.004;24.868;2023-04-01T23:05:47;97194.47;;;12.04;61.74
6532;BME280;3299;42.004;24.868;2023-04-01T23:11:44;97280.59;;;12.61;61.18
6532;BME280;3299;42.004;24.868;2023-04-01T23:19:44;97230.59;;;12.42;59.61
6532;BME280;3299;42.004;24.868;2023-04-01T23:35:59;97192.28;;;11.72;63.25
6532;BME280;3299;42.004;24.868;2023-04-01T23:38:35;97215.44;;;11.83;63.97
6532;BME280;3299;42.004;24.868;2023-04-01T23:41:02;97284.38;;;12.13;63.81
6532;BME280;3299;42.004;24.868;2023-04-01T23:43:30;97222.00;;;11.68;64.20
6532;BME280;3299;42.004;24.868;2023-04-01T23:45:58;97250.63;;;11.86;64.48
6532;BME280;3299;42.004;24.868;2023-04-01T23:48:35;97220.81;;;11.53;64.50
6532;BME280;3299;42.004;24.868;2023-04-01T23:51:02;97234.19;;;11.49;64.98
6532;BME280;3299;42.004;24.868;2023-04-01T23:53:33;97290.19;;;11.78;65.74
6532;BME280;3299;42.004;24.868;2023-04-01T23:56:01;97277.38;;;11.67;66.70
6532;BME280;3299;42.004;24.868;2023-04-01T23:58:48;97317.59;;;11.90;67.58
